createdAt,value
2022-12-04T00:01:46.161Z,101494.31
2022-12-04T00:03:53.116Z,101497.00
2022-12-04T00:06:04.849Z,101491.78
2022-12-04T00:08:08.539Z,101492.69
2022-12-04T00:10:13.835Z,101491.84
2022-12-04T00:12:17.870Z,101492.69
2022-12-04T00:14:21.433Z,101489.16
2022-12-04T00:16:26.533Z,101487.25
2022-12-04T00:18:30.119Z,101493.09
2022-12-04T00:20:33.781Z,101485.84
2022-12-04T00:22:37.426Z,101488.25
2022-12-04T00:24:41.001Z,101487.91
2022-12-04T00:26:46.251Z,101486.78
2022-12-04T00:28:51.025Z,101483.16
2022-12-04T00:30:54.671Z,101476.00
2022-12-04T00:32:58.132Z,101466.22
2022-12-04T00:35:01.745Z,101474.91
2022-12-04T00:37:05.512Z,101471.34
2022-12-04T00:39:09.247Z,101470.44
2022-12-04T00:41:14.394Z,101471.28
2022-12-04T00:43:20.097Z,101468.53
2022-12-04T00:45:23.608Z,101463.16
2022-12-04T00:47:27.367Z,101469.25
2022-12-04T00:49:31.145Z,101470.09
2022-12-04T00:51:35.861Z,101471.81
2022-12-04T00:53:39.691Z,101470.09
2022-12-04T00:55:44.062Z,101470.16
2022-12-04T00:57:48.569Z,101473.63
2022-12-04T00:59:54.142Z,101472.78
2022-12-04T01:01:58.110Z,101472.78
2022-12-04T01:04:01.994Z,101468.38
2022-12-04T01:06:07.123Z,101464.03
2022-12-04T01:08:12.514Z,101464.06
2022-12-04T01:10:16.292Z,101468.53
2022-12-04T01:12:21.024Z,101465.09
2022-12-04T01:14:24.861Z,101462.50
2022-12-04T01:16:33.186Z,101462.56
2022-12-04T01:18:36.903Z,101464.41
2022-12-04T01:20:40.588Z,101458.22
2022-12-04T01:22:44.489Z,101455.56
2022-12-04T01:24:48.131Z,101460.81
2022-12-04T01:26:52.073Z,101454.69
2022-12-04T01:28:55.806Z,101456.34
2022-12-04T01:31:04.217Z,101452.88
2022-12-04T01:33:09.175Z,101451.94
2022-12-04T01:35:12.922Z,101448.41
2022-12-04T01:37:16.560Z,101453.66
2022-12-04T01:39:21.123Z,101454.56
2022-12-04T01:41:28.044Z,101447.56
2022-12-04T01:43:32.969Z,101443.16
2022-12-04T01:45:41.762Z,101445.72
2022-12-04T01:47:46.161Z,101445.59
2022-12-04T01:49:51.348Z,101446.38
2022-12-04T01:52:00.399Z,101445.47
2022-12-04T01:54:08.578Z,101444.56
2022-12-04T01:56:12.840Z,101450.66
2022-12-04T01:58:19.201Z,101448.09
2022-12-04T02:00:23.194Z,101441.94
2022-12-04T02:02:31.775Z,101446.31
2022-12-04T02:04:36.710Z,101454.22
2022-12-04T02:06:42.243Z,101447.25
2022-12-04T02:08:45.778Z,101447.28
2022-12-04T02:11:00.290Z,101441.16
2022-12-04T02:13:12.494Z,101449.06
2022-12-04T02:15:20.306Z,101446.50
2022-12-04T02:17:29.653Z,101442.06
2022-12-04T02:19:56.861Z,101442.91
2022-12-04T02:22:10.495Z,101445.41
2022-12-04T02:24:48.256Z,101446.25
2022-12-04T02:27:00.945Z,101441.88
2022-12-04T02:29:11.866Z,101441.00
2022-12-04T02:31:20.377Z,101445.34
2022-12-04T02:33:27.856Z,101438.34
2022-12-04T02:35:36.548Z,101440.97
2022-12-04T02:37:45.277Z,101440.91
2022-12-04T02:39:56.442Z,101438.28
2022-12-04T02:42:06.660Z,101442.63
2022-12-04T02:44:15.995Z,101447.88
2022-12-04T02:46:26.784Z,101435.66
2022-12-04T02:48:33.433Z,101444.47
2022-12-04T02:50:42.008Z,101440.97
2022-12-04T02:52:50.730Z,101442.66
2022-12-04T02:55:01.083Z,101438.28
2022-12-04T02:57:11.432Z,101442.59
2022-12-04T02:59:21.139Z,101435.53
2022-12-04T03:01:30.259Z,101427.59
2022-12-04T03:03:35.890Z,101439.84
2022-12-04T03:05:44.450Z,101426.63
2022-12-04T03:07:52.879Z,101438.00
2022-12-04T03:09:59.476Z,101420.47
2022-12-04T03:12:11.848Z,101430.03
2022-12-04T03:14:21.204Z,101424.72
2022-12-04T03:16:28.804Z,101424.59
2022-12-04T03:18:37.784Z,101418.38
2022-12-04T03:20:43.990Z,101422.66
2022-12-04T03:22:52.878Z,101419.97
2022-12-04T03:24:58.312Z,101420.78
2022-12-04T03:27:10.017Z,101423.38
2022-12-04T03:29:19.953Z,101419.75
2022-12-04T03:31:31.453Z,101421.41
2022-12-04T03:33:41.898Z,101424.03
2022-12-04T03:35:51.900Z,101417.88
2022-12-04T03:38:01.731Z,101422.22
2022-12-04T03:40:11.263Z,101413.53
2022-12-04T03:42:20.188Z,101417.94
2022-12-04T03:44:29.570Z,101414.47
2022-12-04T03:46:39.768Z,101406.66
2022-12-04T03:48:49.114Z,101408.50
2022-12-04T03:50:57.687Z,101413.88
2022-12-04T03:53:08.496Z,101415.69
2022-12-04T03:55:19.616Z,101408.69
2022-12-04T03:57:30.401Z,101411.38
2022-12-04T03:59:40.441Z,101411.50
2022-12-04T04:01:50.044Z,101402.78
2022-12-04T04:03:57.111Z,101414.28
2022-12-04T04:06:05.717Z,101415.22
2022-12-04T04:08:31.167Z,101419.59
2022-12-04T04:10:34.879Z,101413.50
2022-12-04T04:12:44.028Z,101416.13
2022-12-04T04:15:11.356Z,101416.97
2022-12-04T04:17:38.940Z,101416.00
2022-12-04T04:20:06.438Z,101415.03
2022-12-04T04:22:29.192Z,101410.59
2022-12-04T04:24:40.951Z,101410.53
2022-12-04T04:26:46.757Z,101414.06
2022-12-04T04:28:50.024Z,101410.59
2022-12-04T04:30:56.832Z,101418.38
2022-12-04T04:33:07.557Z,101415.69
2022-12-04T04:35:19.729Z,101412.16
2022-12-04T04:37:33.539Z,101421.78
2022-12-04T04:39:41.538Z,101423.56
2022-12-04T04:41:52.054Z,101414.78
2022-12-04T04:44:02.983Z,101420.81
2022-12-04T04:46:12.640Z,101415.56
2022-12-04T04:48:21.726Z,101419.00
2022-12-04T04:50:26.184Z,101410.22
2022-12-04T04:52:30.209Z,101420.75
2022-12-04T04:54:36.781Z,101415.47
2022-12-04T04:56:45.760Z,101422.44
2022-12-04T04:58:49.015Z,101419.81
2022-12-04T05:00:59.350Z,101426.84
2022-12-04T05:03:04.288Z,101423.31
2022-12-04T05:05:08.580Z,101425.88
2022-12-04T05:07:11.922Z,101422.34
2022-12-04T05:09:15.178Z,101421.41
2022-12-04T05:11:19.288Z,101428.41
2022-12-04T05:13:23.076Z,101424.91
2022-12-04T05:15:26.421Z,101424.03
2022-12-04T05:17:29.679Z,101418.78
2022-12-04T05:19:57.590Z,101424.97
2022-12-04T05:22:01.530Z,101420.63
2022-12-04T05:24:05.193Z,101419.75
2022-12-04T05:26:08.477Z,101420.69
2022-12-04T05:28:11.783Z,101413.63
2022-12-04T05:30:15.468Z,101422.38
2022-12-04T05:32:18.813Z,101423.25
2022-12-04T05:34:22.070Z,101421.59
2022-12-04T05:36:26.782Z,101411.19
2022-12-04T05:38:30.218Z,101414.78
2022-12-04T05:40:33.520Z,101414.91
2022-12-04T05:42:36.719Z,101424.53
2022-12-04T05:44:40.209Z,101436.03
2022-12-04T05:46:43.499Z,101439.78
2022-12-04T05:48:46.897Z,101434.66
2022-12-04T05:50:50.249Z,101447.28
2022-12-04T05:52:55.020Z,101444.16
2022-12-04T05:54:58.309Z,101448.94
2022-12-04T05:57:01.627Z,101457.06
2022-12-04T05:59:05.019Z,101459.06
2022-12-04T06:01:13.019Z,101449.84
2022-12-04T06:03:16.305Z,101453.81
2022-12-04T06:05:19.687Z,101450.72
2022-12-04T06:07:23.017Z,101452.78
2022-12-04T06:09:27.743Z,101447.78
2022-12-04T06:11:33.796Z,101447.88
2022-12-04T06:13:37.191Z,101438.22
2022-12-04T06:15:41.548Z,101445.13
2022-12-04T06:17:44.851Z,101443.31
2022-12-04T06:19:48.283Z,101441.38
2022-12-04T06:21:54.498Z,101440.28
2022-12-04T06:23:57.855Z,101444.47
2022-12-04T06:26:07.316Z,101455.69
2022-12-04T06:28:10.775Z,101443.63
2022-12-04T06:30:14.637Z,101450.56
2022-12-04T06:32:21.833Z,101448.56
2022-12-04T06:34:25.397Z,101443.13
2022-12-04T06:36:28.883Z,101437.66
2022-12-04T06:38:32.820Z,101439.28
2022-12-04T06:40:36.144Z,101442.75
2022-12-04T06:42:40.854Z,101440.00
2022-12-04T06:44:44.169Z,101438.25
2022-12-04T06:46:49.183Z,101439.94
2022-12-04T06:48:55.495Z,101444.25
2022-12-04T06:51:02.745Z,101451.97
2022-12-04T06:53:08.493Z,101458.03
2022-12-04T06:55:12.063Z,101448.06
2022-12-04T06:57:15.441Z,101452.22
2022-12-04T06:59:20.107Z,101454.34
2022-12-04T07:01:26.275Z,101444.13
2022-12-04T07:03:29.690Z,101440.78
2022-12-04T07:05:33.061Z,101447.84
2022-12-04T07:07:36.368Z,101444.44
2022-12-04T07:09:39.776Z,101443.59
2022-12-04T07:11:44.323Z,101451.75
2022-12-04T07:13:47.660Z,101444.13
2022-12-04T07:15:52.533Z,101439.09
2022-12-04T07:17:55.907Z,101454.06
2022-12-04T07:19:59.374Z,101448.94
2022-12-04T07:22:02.697Z,101457.53
2022-12-04T07:24:06.593Z,101459.09
2022-12-04T07:26:12.058Z,101464.19
2022-12-04T07:28:15.356Z,101468.31
2022-12-04T07:30:19.061Z,101470.72
2022-12-04T07:32:23.877Z,101464.44
2022-12-04T07:34:27.231Z,101458.31
2022-12-04T07:36:30.458Z,101456.66
2022-12-04T07:38:35.079Z,101454.22
2022-12-04T07:40:38.828Z,101454.31
2022-12-04T07:42:42.166Z,101463.22
2022-12-04T07:44:45.453Z,101465.94
2022-12-04T07:46:48.952Z,101465.97
2022-12-04T07:48:54.014Z,101466.88
2022-12-04T07:51:04.409Z,101471.22
2022-12-04T07:53:07.821Z,101473.03
2022-12-04T07:55:17.516Z,101471.31
2022-12-04T07:57:23.534Z,101477.44
2022-12-04T07:59:26.985Z,101469.59
2022-12-04T08:01:30.386Z,101480.03
2022-12-04T08:03:34.589Z,101487.78
2022-12-04T08:05:39.579Z,101485.09
2022-12-04T08:07:43.258Z,101500.81
2022-12-04T08:09:47.119Z,101484.31
2022-12-04T08:11:50.700Z,101479.41
2022-12-04T08:13:56.010Z,101472.44
2022-12-04T08:16:02.942Z,101483.28
2022-12-04T08:18:06.499Z,101488.66
2022-12-04T08:20:10.690Z,101489.59
2022-12-04T08:22:19.130Z,101488.72
2022-12-04T08:24:25.248Z,101483.41
2022-12-04T08:26:31.025Z,101482.44
2022-12-04T08:28:34.618Z,101472.81
2022-12-04T08:30:39.270Z,101477.91
2022-12-04T08:32:43.283Z,101483.09
2022-12-04T08:34:51.158Z,101476.03
2022-12-04T08:36:59.715Z,101478.53
2022-12-04T08:39:05.384Z,101477.50
2022-12-04T08:41:13.316Z,101480.84
2022-12-04T08:43:17.274Z,101473.75
2022-12-04T08:45:21.119Z,101467.31
2022-12-04T08:47:25.365Z,101474.13
2022-12-04T08:49:30.827Z,101477.53
2022-12-04T08:51:36.380Z,101477.09
2022-12-04T08:53:40.084Z,101478.72
2022-12-04T08:55:45.647Z,101474.66
2022-12-04T08:57:49.398Z,101472.84
2022-12-04T08:59:53.621Z,101482.19
2022-12-04T09:01:57.757Z,101475.69
2022-12-04T09:04:01.806Z,101481.53
2022-12-04T09:06:07.325Z,101489.97
2022-12-04T09:08:11.371Z,101491.44
2022-12-04T09:10:15.981Z,101492.19
2022-12-04T09:12:21.734Z,101489.53
2022-12-04T09:14:26.823Z,101485.13
2022-12-04T09:16:31.201Z,101492.09
2022-12-04T09:18:35.654Z,101499.94
2022-12-04T09:20:39.600Z,101497.19
2022-12-04T09:23:02.970Z,101504.06
2022-12-04T09:25:10.216Z,101516.47
2022-12-04T09:27:15.084Z,101518.50
2022-12-04T09:29:20.456Z,101511.75
2022-12-04T09:31:25.267Z,101496.19
2022-12-04T09:33:30.718Z,101493.66
2022-12-04T09:35:34.537Z,101490.19
2022-12-04T09:37:39.006Z,101499.78
2022-12-04T09:39:42.854Z,101511.06
2022-12-04T09:42:05.026Z,101506.59
2022-12-04T09:44:16.984Z,101511.81
2022-12-04T09:46:28.350Z,101504.72
2022-12-04T09:48:37.420Z,101504.63
2022-12-04T09:50:44.005Z,101518.41
2022-12-04T09:52:56.900Z,101528.69
2022-12-04T09:55:05.263Z,101514.75
2022-12-04T09:57:17.210Z,101515.84
2022-12-04T09:59:25.344Z,101505.47
2022-12-04T10:01:36.678Z,101504.63
2022-12-04T10:03:41.691Z,101503.72
2022-12-04T10:05:54.618Z,101503.66
2022-12-04T10:08:08.825Z,101510.53
2022-12-04T10:10:22.684Z,101517.44
2022-12-04T10:12:36.404Z,101512.63
2022-12-04T10:15:09.161Z,101512.34
2022-12-04T10:17:34.781Z,101523.50
2022-12-04T10:19:48.168Z,101524.28
2022-12-04T10:22:05.599Z,101518.13
2022-12-04T10:24:22.289Z,101509.31
2022-12-04T10:26:32.018Z,101514.41
2022-12-04T10:28:40.413Z,101518.72
2022-12-04T10:30:45.226Z,101517.81
2022-12-04T10:32:58.172Z,101511.63
2022-12-04T10:35:15.974Z,101515.91
2022-12-04T10:37:19.796Z,101510.56
2022-12-04T10:39:28.531Z,101499.91
2022-12-04T10:41:39.790Z,101499.84
2022-12-04T10:43:45.982Z,101499.75
2022-12-04T10:45:50.777Z,101510.16
2022-12-04T10:47:56.428Z,101508.31
2022-12-04T10:50:03.730Z,101509.16
2022-12-04T10:52:08.280Z,101505.59
2022-12-04T10:54:21.685Z,101508.22
2022-12-04T10:56:26.138Z,101509.06
2022-12-04T10:58:30.453Z,101502.19
2022-12-04T11:00:36.877Z,101492.56
2022-12-04T11:02:41.776Z,101500.41
2022-12-04T11:04:53.903Z,101502.91
2022-12-04T11:07:04.264Z,101493.25
2022-12-04T11:09:08.215Z,101492.28
2022-12-04T11:11:14.779Z,101486.03
2022-12-04T11:13:21.486Z,101488.53
2022-12-04T11:15:26.115Z,101480.47
2022-12-04T11:17:30.168Z,101484.72
2022-12-04T11:19:36.555Z,101482.06
2022-12-04T11:21:41.666Z,101480.28
2022-12-04T11:23:48.533Z,101481.97
2022-12-04T11:25:55.858Z,101478.38
2022-12-04T11:28:04.129Z,101472.03
2022-12-04T11:30:14.807Z,101481.44
2022-12-04T11:32:23.564Z,101479.34
2022-12-04T11:34:34.175Z,101473.09
2022-12-04T11:36:42.280Z,101478.25
2022-12-04T11:38:46.245Z,101478.03
2022-12-04T11:40:52.301Z,101482.28
2022-12-04T11:43:03.313Z,101472.59
2022-12-04T11:45:21.739Z,101473.38
2022-12-04T11:47:27.663Z,101469.84
2022-12-04T11:49:34.703Z,101473.28
2022-12-04T11:51:53.774Z,101466.22
2022-12-04T11:54:02.608Z,101464.41
2022-12-04T11:56:26.736Z,101467.94
2022-12-04T11:58:52.726Z,101466.09
2022-12-04T12:01:05.508Z,101463.47
2022-12-04T12:03:17.100Z,101459.81
2022-12-04T12:05:38.929Z,101454.31
2022-12-04T12:08:01.933Z,101458.50
2022-12-04T12:10:08.360Z,101454.06
2022-12-04T12:12:16.877Z,101468.91
2022-12-04T12:14:28.459Z,101474.34
2022-12-04T12:16:51.226Z,101464.19
2022-12-04T12:19:13.342Z,101482.31
2022-12-04T12:21:23.726Z,101485.50
2022-12-04T12:23:42.792Z,101481.53
2022-12-04T12:25:57.645Z,101474.75
2022-12-04T12:28:13.773Z,101468.78
2022-12-04T12:30:21.277Z,101479.38
2022-12-04T12:32:52.606Z,101474.19
2022-12-04T12:34:57.121Z,101466.63
2022-12-04T12:37:07.337Z,101462.38
2022-12-04T12:39:19.357Z,101459.81
2022-12-04T12:41:27.501Z,101455.50
2022-12-04T12:43:34.502Z,101451.88
2022-12-04T12:45:46.748Z,101453.50
2022-12-04T12:47:55.683Z,101442.84
2022-12-04T12:50:03.459Z,101441.03
2022-12-04T12:52:16.625Z,101433.97
2022-12-04T12:54:29.644Z,101423.72
2022-12-04T12:56:38.538Z,101424.16
2022-12-04T12:58:48.043Z,101428.72
2022-12-04T13:00:59.490Z,101431.03
2022-12-04T13:03:07.959Z,101420.63
2022-12-04T13:05:14.850Z,101411.13
2022-12-04T13:07:32.573Z,101411.66
2022-12-04T13:09:43.080Z,101418.38
2022-12-04T13:11:51.152Z,101418.97
2022-12-04T13:13:58.195Z,101405.47
2022-12-04T13:16:11.056Z,101411.78
2022-12-04T13:18:24.034Z,101413.13
2022-12-04T13:20:32.550Z,101419.66
2022-12-04T13:22:46.051Z,101418.63
2022-12-04T13:25:13.743Z,101414.25
2022-12-04T13:27:31.991Z,101422.22
2022-12-04T13:29:51.088Z,101429.38
2022-12-04T13:32:06.331Z,101431.06
2022-12-04T13:34:43.387Z,101422.50
2022-12-04T13:37:17.372Z,101416.97
2022-12-04T13:39:28.778Z,101421.69
2022-12-04T13:41:37.410Z,101414.78
2022-12-04T13:43:48.942Z,101419.06
2022-12-04T13:45:55.785Z,101415.34
2022-12-04T13:48:00.971Z,101414.19
2022-12-04T13:50:29.297Z,101419.16
2022-12-04T13:52:41.151Z,101427.53
2022-12-04T13:54:45.191Z,101428.09
2022-12-04T13:56:51.940Z,101415.66
2022-12-04T13:59:02.598Z,101415.47
2022-12-04T14:01:13.599Z,101416.16
2022-12-04T14:03:26.856Z,101415.13
2022-12-04T14:05:34.515Z,101420.31
2022-12-04T14:07:41.489Z,101422.00
2022-12-04T14:09:53.536Z,101421.16
2022-12-04T14:12:04.038Z,101430.00
2022-12-04T14:14:08.724Z,101422.13
2022-12-04T14:16:23.334Z,101427.38
2022-12-04T14:18:31.760Z,101413.44
2022-12-04T14:20:37.175Z,101418.69
2022-12-04T14:22:45.148Z,101421.31
2022-12-04T14:24:49.684Z,101428.34
2022-12-04T14:27:11.239Z,101419.47
2022-12-04T14:29:36.184Z,101427.38
2022-12-04T14:31:42.153Z,101429.09
2022-12-04T14:33:49.733Z,101427.25
2022-12-04T14:36:03.186Z,101427.19
2022-12-04T14:38:09.130Z,101426.25
2022-12-04T14:40:22.510Z,101428.97
2022-12-04T14:42:29.259Z,101427.47
2022-12-04T14:44:35.077Z,101430.53
2022-12-04T14:46:44.188Z,101431.84
2022-12-04T14:48:56.263Z,101428.59
2022-12-04T14:51:09.600Z,101430.50
2022-12-04T14:53:17.857Z,101425.34
2022-12-04T14:55:32.544Z,101427.97
2022-12-04T14:57:47.171Z,101433.13
2022-12-04T14:59:54.728Z,101417.38
2022-12-04T15:01:58.431Z,101422.56
2022-12-04T15:04:12.063Z,101420.75
2022-12-04T15:06:23.396Z,101423.22
2022-12-04T15:08:27.201Z,101428.41
2022-12-04T15:10:50.173Z,101432.69
2022-12-04T15:12:55.363Z,101438.72
2022-12-04T15:15:04.617Z,101432.69
2022-12-04T15:17:09.582Z,101428.09
2022-12-04T15:19:21.412Z,101440.69
2022-12-04T15:21:30.003Z,101446.09
2022-12-04T15:23:38.709Z,101451.44
2022-12-04T15:25:47.357Z,101459.28
2022-12-04T15:27:54.319Z,101468.28
2022-12-04T15:30:01.944Z,101463.44
2022-12-04T15:32:10.214Z,101448.25
2022-12-04T15:34:18.066Z,101452.03
2022-12-04T15:36:33.812Z,101460.09
2022-12-04T15:38:38.457Z,101459.16
2022-12-04T15:40:52.020Z,101435.53
2022-12-04T15:42:56.603Z,101449.41
2022-12-04T15:45:03.190Z,101449.41
2022-12-04T15:47:21.237Z,101444.09
2022-12-04T15:49:28.472Z,101452.75
2022-12-04T15:51:32.333Z,101444.78
2022-12-04T15:53:40.525Z,101444.72
2022-12-04T15:55:52.838Z,101452.34
2022-12-04T15:57:58.996Z,101448.72
2022-12-04T16:00:07.185Z,101453.88
2022-12-04T16:02:25.146Z,101460.66
2022-12-04T16:04:36.131Z,101457.81
2022-12-04T16:06:47.661Z,101458.59
2022-12-04T16:08:54.390Z,101463.75
2022-12-04T16:11:00.263Z,101461.06
2022-12-04T16:13:05.954Z,101460.84
2022-12-04T16:15:11.618Z,101463.31
2022-12-04T16:17:15.562Z,101471.13
2022-12-04T16:19:27.451Z,101470.19
2022-12-04T16:21:32.982Z,101471.81
2022-12-04T16:23:36.534Z,101467.50
2022-12-04T16:25:40.283Z,101477.22
2022-12-04T16:27:43.811Z,101478.19
2022-12-04T16:29:47.670Z,101477.38
2022-12-04T16:31:55.154Z,101474.75
2022-12-04T16:34:03.279Z,101478.19
2022-12-04T16:36:07.521Z,101480.81
2022-12-04T16:38:17.151Z,101477.22
2022-12-04T16:40:21.059Z,101485.06
2022-12-04T16:42:27.927Z,101481.53
2022-12-04T16:44:31.512Z,101487.63
2022-12-04T16:46:35.325Z,101490.22
2022-12-04T16:48:40.657Z,101489.31
2022-12-04T16:50:44.487Z,101491.94
2022-12-04T16:52:48.160Z,101487.50
2022-12-04T16:54:51.973Z,101494.47
2022-12-04T16:56:55.830Z,101496.13
2022-12-04T16:58:59.667Z,101491.84
2022-12-04T17:01:04.715Z,101498.69
2022-12-04T17:03:08.400Z,101503.00
2022-12-04T17:05:21.598Z,101505.63
2022-12-04T17:07:25.248Z,101499.44
2022-12-04T17:09:28.845Z,101511.72
2022-12-04T17:11:32.519Z,101499.44
2022-12-04T17:13:36.159Z,101505.53
2022-12-04T17:15:39.831Z,101502.84
2022-12-04T17:17:43.524Z,101508.88
2022-12-04T17:19:48.439Z,101514.03
2022-12-04T17:21:53.621Z,101513.88
2022-12-04T17:23:57.394Z,101512.91
2022-12-04T17:26:03.522Z,101519.94
2022-12-04T17:28:07.148Z,101519.94
2022-12-04T17:30:11.989Z,101531.41
2022-12-04T17:32:16.116Z,101537.78
2022-12-04T17:34:19.838Z,101540.59
2022-12-04T17:36:25.388Z,101532.91
2022-12-04T17:38:30.625Z,101530.56
2022-12-04T17:40:34.485Z,101534.19
2022-12-04T17:42:38.693Z,101533.34
2022-12-04T17:44:42.688Z,101532.53
2022-12-04T17:46:46.471Z,101536.88
2022-12-04T17:48:50.654Z,101548.22
2022-12-04T17:51:07.405Z,101559.94
2022-12-04T17:53:11.110Z,101553.63
2022-12-04T17:55:16.437Z,101540.03
2022-12-04T17:57:21.721Z,101549.69
2022-12-04T17:59:25.400Z,101563.75
2022-12-04T18:01:31.214Z,101558.44
2022-12-04T18:03:35.663Z,101561.88
2022-12-04T18:05:39.391Z,101553.97
2022-12-04T18:07:43.212Z,101560.84
2022-12-04T18:09:46.937Z,101555.59
2022-12-04T18:11:52.729Z,101561.63
2022-12-04T18:13:59.556Z,101564.22
2022-12-04T18:16:05.325Z,101566.69
2022-12-04T18:18:09.241Z,101571.81
2022-12-04T18:20:13.649Z,101562.09
2022-12-04T18:22:17.454Z,101569.00
2022-12-04T18:24:21.417Z,101570.63
2022-12-04T18:26:27.202Z,101565.28
2022-12-04T18:28:33.180Z,101561.72
2022-12-04T18:30:37.285Z,101556.38
2022-12-04T18:32:41.258Z,101557.13
2022-12-04T18:34:47.337Z,101562.31
2022-12-04T18:36:51.535Z,101565.72
2022-12-04T18:38:56.800Z,101557.72
2022-12-04T18:41:04.211Z,101560.13
2022-12-04T18:43:07.696Z,101555.56
2022-12-04T18:45:13.406Z,101562.34
2022-12-04T18:47:17.121Z,101562.16
2022-12-04T18:49:21.001Z,101569.13
2022-12-04T18:51:27.067Z,101567.34
2022-12-04T18:53:30.843Z,101572.59
2022-12-04T18:55:37.157Z,101580.38
2022-12-04T18:57:40.867Z,101577.75
2022-12-04T18:59:44.642Z,101565.50
2022-12-04T19:01:50.471Z,101574.38
2022-12-04T19:03:58.398Z,101570.97
2022-12-04T19:06:02.821Z,101568.38
2022-12-04T19:08:06.974Z,101576.22
2022-12-04T19:10:11.789Z,101578.78
2022-12-04T19:12:15.824Z,101592.66
2022-12-04T19:14:23.720Z,101591.50
2022-12-04T19:16:28.020Z,101584.38
2022-12-04T19:18:34.060Z,101596.44
2022-12-04T19:20:40.884Z,101590.97
2022-12-04T19:22:44.910Z,101592.63
2022-12-04T19:24:48.615Z,101584.63
2022-12-04T19:26:55.767Z,101595.03
2022-12-04T19:28:59.681Z,101598.44
2022-12-04T19:31:03.695Z,101598.28
2022-12-04T19:33:07.228Z,101608.56
2022-12-04T19:35:12.572Z,101608.41
2022-12-04T19:37:16.501Z,101616.41
2022-12-04T19:39:20.123Z,101606.94
2022-12-04T19:41:26.075Z,101623.78
2022-12-04T19:43:30.132Z,101620.53
2022-12-04T19:45:34.213Z,101619.88
2022-12-04T19:47:38.032Z,101620.91
2022-12-04T19:49:42.113Z,101614.06
2022-12-04T19:51:47.875Z,101603.66
2022-12-04T19:53:51.773Z,101609.75
2022-12-04T19:55:55.372Z,101608.91
2022-12-04T19:58:01.855Z,101609.75
2022-12-04T20:00:07.054Z,101617.56
2022-12-04T20:02:16.036Z,101614.84
2022-12-04T20:04:20.127Z,101623.31
2022-12-04T20:06:26.712Z,101629.31
2022-12-04T20:08:32.212Z,101630.03
2022-12-04T20:10:37.433Z,101641.25
2022-12-04T20:12:41.036Z,101645.66
2022-12-04T20:14:44.802Z,101652.69
2022-12-04T20:16:49.048Z,101649.19
2022-12-04T20:18:53.102Z,101641.28
2022-12-04T20:20:57.207Z,101648.28
2022-12-04T20:23:00.913Z,101649.22
2022-12-04T20:25:06.520Z,101648.34
2022-12-04T20:27:10.134Z,101640.44
2022-12-04T20:29:16.382Z,101643.84
2022-12-04T20:31:22.101Z,101648.97
2022-12-04T20:33:25.869Z,101661.09
2022-12-04T20:35:29.611Z,101650.44
2022-12-04T20:37:33.520Z,101654.63
2022-12-04T20:39:38.255Z,101659.78
2022-12-04T20:41:43.654Z,101663.19
2022-12-04T20:43:49.179Z,101675.31
2022-12-04T20:45:53.517Z,101677.91
2022-12-04T20:47:57.809Z,101681.44
2022-12-04T20:50:01.865Z,101694.06
2022-12-04T20:52:06.621Z,101696.34
2022-12-04T20:54:12.831Z,101692.41
2022-12-04T20:56:17.391Z,101692.59
2022-12-04T20:58:23.355Z,101690.13
2022-12-04T21:00:27.419Z,101677.13
2022-12-04T21:02:31.496Z,101684.28
2022-12-04T21:04:38.748Z,101689.56
2022-12-04T21:06:43.426Z,101686.97
2022-12-04T21:08:57.740Z,101689.63
2022-12-04T21:11:01.997Z,101690.53
2022-12-04T21:13:22.950Z,101691.41
2022-12-04T21:15:45.835Z,101695.81
2022-12-04T21:17:49.648Z,101694.03
2022-12-04T21:19:53.498Z,101699.25
2022-12-04T21:21:57.212Z,101693.91
2022-12-04T21:24:01.426Z,101702.63
2022-12-04T21:26:05.501Z,101702.63
2022-12-04T21:28:09.752Z,101710.41
2022-12-04T21:30:14.705Z,101717.25
2022-12-04T21:32:21.090Z,101722.31
2022-12-04T21:34:24.851Z,101717.59
2022-12-04T21:36:29.512Z,101721.69
2022-12-04T21:38:35.114Z,101722.31
2022-12-04T21:40:42.339Z,101726.59
2022-12-04T21:42:45.783Z,101724.69
2022-12-04T21:44:49.367Z,101721.06
2022-12-04T21:46:53.599Z,101711.19
2022-12-04T21:48:59.374Z,101722.38
2022-12-04T21:51:26.671Z,101718.75
2022-12-04T21:53:33.162Z,101714.34
2022-12-04T21:55:37.300Z,101730.84
2022-12-04T21:57:42.161Z,101722.00
2022-12-04T21:59:46.336Z,101723.63
2022-12-04T22:01:50.185Z,101720.13
2022-12-04T22:03:56.831Z,101723.47
2022-12-04T22:06:03.348Z,101721.56
2022-12-04T22:08:08.303Z,101722.41
2022-12-04T22:10:13.037Z,101723.25
2022-12-04T22:12:47.980Z,101726.81
2022-12-04T22:14:41.045Z,101720.63
2022-12-04T22:16:44.982Z,101719.72
2022-12-04T22:18:48.941Z,101717.16
2022-12-04T22:20:52.973Z,101721.56
2022-12-04T22:22:58.034Z,101717.97
2022-12-04T22:25:02.011Z,101721.44
2022-12-04T22:27:06.059Z,101724.84
2022-12-04T22:29:48.001Z,101723.97
2022-12-04T22:31:33.908Z,101727.50
2022-12-04T22:33:38.611Z,101723.06
2022-12-04T22:35:42.394Z,101732.75
2022-12-04T22:37:46.331Z,101730.16
2022-12-04T22:39:51.650Z,101731.03
2022-12-04T22:41:55.472Z,101737.91
2022-12-04T22:43:59.362Z,101733.38
2022-12-04T22:46:03.473Z,101724.59
2022-12-04T22:48:07.471Z,101726.31
2022-12-04T22:50:12.512Z,101717.53
2022-12-04T22:52:16.795Z,101719.19
2022-12-04T22:54:20.998Z,101716.56
2022-12-04T22:56:28.402Z,101701.72
2022-12-04T22:58:32.293Z,101710.63
2022-12-04T23:00:36.071Z,101695.84
2022-12-04T23:02:40.220Z,101698.59
2022-12-04T23:04:44.110Z,101701.28
2022-12-04T23:06:48.155Z,101704.03
2022-12-04T23:08:56.178Z,101719.94
2022-12-04T23:11:04.071Z,101734.00
2022-12-04T23:13:09.317Z,101741.94
2022-12-04T23:15:13.918Z,101759.47
2022-12-04T23:17:18.336Z,101753.34
2022-12-04T23:19:22.458Z,101762.94
2022-12-04T23:21:27.062Z,101772.47
2022-12-04T23:23:30.866Z,101776.91
2022-12-04T23:25:40.785Z,101776.00
2022-12-04T23:27:44.589Z,101769.00
2022-12-04T23:29:53.841Z,101768.09
2022-12-04T23:31:58.194Z,101781.22
2022-12-04T23:34:03.524Z,101771.66
2022-12-04T23:36:08.430Z,101771.69
2022-12-04T23:38:12.523Z,101774.38
2022-12-04T23:40:16.828Z,101769.13
2022-12-04T23:42:20.757Z,101770.84
2022-12-04T23:44:24.439Z,101769.78
2022-12-04T23:46:32.672Z,101778.53
2022-12-04T23:48:37.011Z,101779.25
2022-12-04T23:50:40.880Z,101776.63
2022-12-04T23:52:44.600Z,101775.63
2022-12-04T23:54:49.000Z,101775.63
2022-12-04T23:56:52.911Z,101776.44
2022-12-04T23:58:58.661Z,101777.34
